Time;durP1;ratioP1;P1;durP2;ratioP2;P2;SDS_P1;SDS_P2;PMS_P1;PMS_P2;Temp;Humidity;BMP_temperature;BMP_pressure;BME280_temperature;BME280_humidity;BME280_pressure;Samples;Min_cycle;Max_cycle;Signal;HPM_P1;HPM_P2
2022/08/30 00:02:59;;;;;;;8.10;4.40;;;15.30;1.00;;;;;;5029375;28;20037;-56
2022/08/30 00:05:28;;;;;;;9.80;5.28;;;15.20;1.00;;;;;;5031652;28;20440;-56
2022/08/30 00:07:54;;;;;;;10.10;5.10;;;15.40;1.00;;;;;;5032233;28;20033;-54
2022/08/30 00:10:20;;;;;;;8.43;4.63;;;15.30;1.00;;;;;;5032379;28;20078;-57
2022/08/30 00:12:47;;;;;;;9.73;4.90;;;15.10;1.00;;;;;;5031855;28;20052;-56
2022/08/30 00:15:14;;;;;;;9.23;4.45;;;15.20;1.00;;;;;;5031089;28;20148;-57
2022/08/30 00:17:42;;;;;;;8.80;4.65;;;15.00;1.00;;;;;;5008632;28;20168;-57
2022/08/30 00:20:11;;;;;;;7.90;4.30;;;15.20;1.00;;;;;;5028516;28;20429;-57
2022/08/30 00:22:37;;;;;;;7.05;4.15;;;15.30;1.00;;;;;;5031688;28;20025;-56
2022/08/30 00:25:03;;;;;;;7.18;4.53;;;15.10;1.00;;;;;;5028194;28;20483;-57
2022/08/30 00:27:30;;;;;;;7.68;4.78;;;15.00;1.00;;;;;;5031834;28;20402;-57
2022/08/30 00:29:55;;;;;;;9.80;3.95;;;15.30;1.00;;;;;;5027107;28;20037;-58
2022/08/30 00:32:22;;;;;;;7.25;3.90;;;15.10;1.00;;;;;;5012332;28;20037;-56
2022/08/30 00:34:49;;;;;;;8.38;4.13;;;15.30;1.00;;;;;;5013502;28;20716;-55
2022/08/30 00:37:15;;;;;;;7.30;3.50;;;15.30;1.00;;;;;;5030819;28;20069;-56
2022/08/30 00:39:41;;;;;;;6.70;3.83;;;15.20;1.00;;;;;;5009503;28;20081;-56
2022/08/30 00:42:07;;;;;;;8.57;3.67;;;15.30;1.00;;;;;;5031757;28;20120;-53
2022/08/30 00:44:33;;;;;;;7.57;4.00;;;15.20;1.00;;;;;;5030907;28;20099;-54
2022/08/30 00:46:58;;;;;;;8.02;4.00;;;15.20;1.00;;;;;;5028683;28;20049;-54
2022/08/30 00:49:24;;;;;;;8.73;4.50;;;15.30;1.00;;;;;;5031616;28;20120;-56
2022/08/30 00:51:51;;;;;;;7.40;3.72;;;15.30;1.00;;;;;;5027599;28;20183;-56
2022/08/30 00:54:18;;;;;;;10.30;3.90;;;15.30;1.00;;;;;;5031857;28;20045;-57
2022/08/30 00:56:47;;;;;;;7.53;4.20;;;15.10;1.00;;;;;;5031718;28;20044;-53
2022/08/30 00:59:13;;;;;;;7.63;4.15;;;15.70;1.00;;;;;;5026407;28;20070;-57
2022/08/30 01:01:38;;;;;;;9.07;3.85;;;15.30;1.00;;;;;;5024184;28;20034;-57
2022/08/30 01:04:09;;;;;;;9.20;4.40;;;15.80;1.00;;;;;;5029766;28;20030;-54
2022/08/30 01:06:35;;;;;;;6.15;3.60;;;15.00;1.00;;;;;;5013617;28;20091;-58
2022/08/30 01:09:03;;;;;;;7.32;4.40;;;;;;;;;;5030222;28;20151;-57
2022/08/30 01:11:31;;;;;;;6.32;3.70;;;14.90;1.00;;;;;;5031263;28;20090;-57
2022/08/30 01:13:58;;;;;;;7.60;3.97;;;15.20;1.00;;;;;;5027034;28;20035;-56
2022/08/30 01:16:24;;;;;;;7.50;4.45;;;15.90;1.00;;;;;;5030451;28;20033;-56
2022/08/30 01:18:53;;;;;;;8.88;4.70;;;14.90;1.00;;;;;;5027008;28;20127;-57
2022/08/30 01:21:26;;;;;;;9.98;5.30;;;15.20;1.00;;;;;;5026633;28;20030;-57
2022/08/30 01:23:55;;;;;;;8.23;5.57;;;15.10;1.00;;;;;;5030936;28;20037;-58
2022/08/30 01:26:21;;;;;;;7.63;5.03;;;15.00;1.00;;;;;;5013231;28;20128;-58
2022/08/30 01:28:50;;;;;;;8.40;5.03;;;14.70;1.00;;;;;;5009786;28;20518;-57
2022/08/30 01:31:16;;;;;;;8.93;5.43;;;15.10;1.00;;;;;;5029473;28;20121;-58
2022/08/30 01:33:42;;;;;;;8.75;4.95;;;15.00;1.00;;;;;;5023064;28;20125;-57
2022/08/30 01:36:11;;;;;;;9.02;5.40;;;14.70;1.00;;;;;;5017756;28;20116;-58
2022/08/30 01:38:51;;;;;;;8.88;5.10;;;14.90;1.00;;;;;;5021746;28;20092;-58
2022/08/30 01:41:30;;;;;;;8.75;5.40;;;14.90;1.00;;;;;;5025781;28;20504;-57
2022/08/30 01:43:58;;;;;;;7.75;5.00;;;14.70;1.00;;;;;;5012856;28;20116;-58
2022/08/30 01:46:27;;;;;;;11.73;5.63;;;15.00;1.00;;;;;;5030911;28;20037;-58
2022/08/30 01:48:56;;;;;;;10.40;5.22;;;15.00;1.00;;;;;;5023157;28;20123;-57
2022/08/30 01:51:24;;;;;;;8.63;5.43;;;14.70;1.00;;;;;;5023345;28;20037;-56
2022/08/30 01:53:50;;;;;;;7.70;4.97;;;15.20;1.00;;;;;;5026820;28;20053;-57
2022/08/30 01:56:16;;;;;;;8.15;4.60;;;14.90;1.00;;;;;;5030528;28;20034;-56
2022/08/30 01:58:42;;;;;;;8.65;4.95;;;14.70;1.00;;;;;;5028009;28;20495;-58
2022/08/30 02:01:11;;;;;;;9.23;5.18;;;13.90;1.00;;;;;;5010813;28;20040;-57
2022/08/30 02:03:38;;;;;;;10.35;4.95;;;14.70;1.00;;;;;;5011300;28;20116;-57
2022/08/30 02:06:06;;;;;;;7.45;4.88;;;;;;;;;;5027005;28;20095;-56
2022/08/30 02:08:32;;;;;;;6.10;4.07;;;15.00;1.00;;;;;;5012114;28;20060;-58
2022/08/30 02:10:58;;;;;;;6.93;4.22;;;14.50;1.00;;;;;;5030483;28;20091;-57
2022/08/30 02:13:24;;;;;;;7.82;4.78;;;14.10;1.00;;;;;;5029074;28;20116;-58
2022/08/30 02:15:50;;;;;;;7.25;4.07;;;14.40;1.00;;;;;;5030282;28;20079;-58
2022/08/30 02:18:16;;;;;;;12.32;4.70;;;14.80;1.00;;;;;;5029955;28;20459;-53
2022/08/30 02:20:41;;;;;;;11.30;4.82;;;14.30;1.00;;;;;;5029934;28;20040;-54
2022/08/30 02:23:07;;;;;;;8.00;4.28;;;14.00;1.00;;;;;;5026904;28;20038;-58
2022/08/30 02:25:33;;;;;;;8.57;4.78;;;14.50;1.00;;;;;;5029757;28;20128;-56
2022/08/30 02:27:59;;;;;;;8.10;4.25;;;14.20;1.00;;;;;;5029563;28;20029;-57
2022/08/30 02:30:24;;;;;;;8.25;4.82;;;14.40;1.00;;;;;;5028341;28;20385;-56
2022/08/30 02:32:50;;;;;;;7.72;5.13;;;14.70;1.00;;;;;;5030220;28;20128;-57
2022/08/30 02:35:15;;;;;;;10.32;5.18;;;14.50;1.00;;;;;;5027415;28;20415;-57
2022/08/30 02:37:41;;;;;;;11.30;4.95;;;13.70;1.00;;;;;;5029407;28;20125;-57
2022/08/30 02:40:08;;;;;;;8.18;4.75;;;14.60;1.00;;;;;;5030061;28;20136;-56
2022/08/30 02:42:34;;;;;;;9.65;5.18;;;14.40;1.00;;;;;;5029986;28;20415;-57
2022/08/30 02:44:59;;;;;;;9.48;5.78;;;14.50;1.00;;;;;;5012354;28;20048;-57
2022/08/30 02:47:25;;;;;;;6.88;4.80;;;14.00;1.00;;;;;;5027005;28;20033;-54
2022/08/30 02:49:51;;;;;;;10.75;4.50;;;14.60;1.00;;;;;;5028713;28;20038;-56
2022/08/30 02:52:18;;;;;;;9.90;4.63;;;13.70;1.00;;;;;;5029420;28;20418;-57
2022/08/30 02:54:44;;;;;;;7.07;4.07;;;14.40;1.00;;;;;;5029553;28;20401;-56
2022/08/30 02:57:12;;;;;;;9.25;4.47;;;13.90;1.00;;;;;;5029251;28;20034;-56
2022/08/30 02:59:42;;;;;;;11.63;4.30;;;14.10;1.00;;;;;;5029973;28;20045;-55
2022/08/30 03:02:09;;;;;;;9.60;3.80;;;14.10;1.00;;;;;;5029654;28;20120;-57
2022/08/30 03:04:35;;;;;;;8.48;4.60;;;13.90;1.00;;;;;;5029452;28;20407;-58
2022/08/30 03:07:01;;;;;;;9.18;4.57;;;13.90;1.00;;;;;;5029554;28;20116;-56
2022/08/30 03:09:27;;;;;;;9.35;4.63;;;13.90;1.00;;;;;;5026478;28;20468;-56
2022/08/30 03:11:53;;;;;;;9.43;4.10;;;14.50;1.00;;;;;;5030027;28;20037;-57
2022/08/30 03:14:19;;;;;;;6.85;4.07;;;;;;;;;;4122104;22;20072;-85
2022/08/30 03:16:54;;;;;;;8.43;4.13;;;;;;;;;;5007163;28;20056;-85
2022/08/30 03:19:30;;;;;;;10.18;4.40;;;;;;;;;;5023031;28;20100;-86
2022/08/30 03:21:56;;;;;;;11.07;4.32;;;;;;;;;;5006919;28;20128;-85
2022/08/30 03:24:25;;;;;;;7.75;4.47;;;;;;;;;;5006713;28;20086;-85
2022/08/30 03:27:10;;;;;;;9.10;4.63;;;;;;;;;;5003342;28;20056;-85
2022/08/30 03:29:39;;;;;;;10.85;4.85;;;;;;;;;;5036566;28;20489;-87
2022/08/30 03:32:05;;;;;;;8.82;4.22;;;;;;;;;;5006303;28;20661;-86
2022/08/30 03:34:31;;;;;;;8.65;4.93;;;;;;;;;;5016442;23;20041;-52
2022/08/30 03:37:00;;;;;;;9.50;4.65;;;;;;;;;;5032228;28;20128;-52
2022/08/30 03:39:26;;;;;;;8.90;5.15;;;;;;;;;;5045404;28;20079;-53
2022/08/30 03:41:52;;;;;;;7.10;4.32;;;;;;;;;;5043889;28;20029;-53
2022/08/30 03:44:19;;;;;;;8.75;5.22;;;13.70;1.00;;;;;;5045020;28;20517;-53
2022/08/30 03:46:45;;;;;;;7.10;4.45;;;13.70;1.00;;;;;;5052918;28;20120;-53
2022/08/30 03:49:11;;;;;;;8.88;4.70;;;13.70;1.00;;;;;;5043961;28;20040;-53
2022/08/30 03:51:37;;;;;;;9.85;5.25;;;;;;;;;;5036466;28;20041;-53
2022/08/30 03:54:03;;;;;;;9.05;5.25;;;;;;;;;;5050709;28;20037;-52
2022/08/30 03:56:29;;;;;;;8.75;4.65;;;;;;;;;;5036501;28;20416;-53
2022/08/30 03:58:55;;;;;;;9.40;4.65;;;13.50;1.00;;;;;;5038358;28;20033;-53
2022/08/30 04:01:21;;;;;;;8.60;4.93;;;;;;;;;;5044977;28;20556;-52
2022/08/30 04:03:47;;;;;;;11.38;5.25;;;;;;;;;;5044203;28;20198;-53
2022/08/30 04:06:13;;;;;;;9.02;5.13;;;;;;;;;;5043999;28;20037;-54
2022/08/30 04:08:39;;;;;;;7.57;4.82;;;13.40;1.00;;;;;;5036253;28;20132;-54
2022/08/30 04:11:06;;;;;;;8.60;5.10;;;13.40;1.00;;;;;;5040928;28;20080;-53
2022/08/30 04:13:32;;;;;;;9.52;5.30;;;;;;;;;;5035499;28;20480;-53
2022/08/30 04:15:58;;;;;;;9.82;5.30;;;;;;;;;;5040068;28;20603;-53
2022/08/30 04:18:24;;;;;;;8.50;5.28;;;;;;;;;;5051841;28;20032;-53
2022/08/30 04:20:51;;;;;;;12.00;5.82;;;13.20;1.00;;;;;;5040007;28;20478;-51
2022/08/30 04:23:17;;;;;;;9.27;5.57;;;13.30;1.00;;;;;;5044015;28;20078;-53
2022/08/30 04:25:43;;;;;;;8.50;5.25;;;;;;;;;;5040042;28;20509;-50
2022/08/30 04:28:09;;;;;;;10.32;5.43;;;;;;;;;;5050426;28;20092;-52
2022/08/30 04:30:39;;;;;;;9.80;6.50;;;;;;;;;;5050903;28;20051;-51
2022/08/30 04:33:06;;;;;;;9.98;5.63;;;;;;;;;;5049878;28;20037;-50
2022/08/30 04:35:32;;;;;;;8.80;5.47;;;;;;;;;;5042956;28;20052;-49
2022/08/30 04:37:58;;;;;;;8.95;5.63;;;;;;;;;;5033656;28;20278;-50
2022/08/30 04:40:24;;;;;;;9.80;5.57;;;;;;;;;;5039344;28;20065;-50
2022/08/30 04:42:53;;;;;;;10.93;6.18;;;;;;;;;;5040350;28;20033;-48
2022/08/30 04:45:19;;;;;;;9.27;5.65;;;;;;;;;;5045857;28;20133;-49
2022/08/30 04:47:45;;;;;;;8.93;5.35;;;13.40;1.00;;;;;;5044844;28;20041;-49
2022/08/30 04:50:13;;;;;;;8.77;6.05;;;13.50;1.00;;;;;;5045176;28;20037;-50
2022/08/30 04:52:39;;;;;;;9.10;5.53;;;13.30;1.00;;;;;;5044912;28;20045;-50
2022/08/30 04:55:05;;;;;;;11.45;6.20;;;12.80;1.00;;;;;;5039572;28;20044;-49
2022/08/30 04:57:32;;;;;;;7.90;5.38;;;;;;;;;;5041264;28;20037;-51
2022/08/30 04:59:57;;;;;;;9.60;5.13;;;;;;;;;;5042454;28;20033;-52
2022/08/30 05:02:23;;;;;;;9.02;5.50;;;;;;;;;;5042127;28;20033;-50
2022/08/30 05:07:34;;;;;;;10.35;5.70;;;;;;;;;;5045253;28;20041;-48
2022/08/30 05:10:04;;;;;;;10.52;6.32;;;13.40;1.00;;;;;;5047314;28;20037;-49
2022/08/30 05:12:30;;;;;;;8.40;5.85;;;;;;;;;;5042816;28;20084;-51
2022/08/30 05:14:57;;;;;;;9.07;5.05;;;;;;;;;;5043758;28;20103;-50
2022/08/30 05:17:23;;;;;;;9.27;6.10;;;;;;;;;;5041180;28;20120;-51
2022/08/30 05:19:49;;;;;;;10.95;6.13;;;;;;;;;;5039289;28;20048;-51
2022/08/30 05:22:15;;;;;;;9.50;6.05;;;;;;;;;;5041853;28;20083;-51
2022/08/30 05:24:41;;;;;;;11.18;6.55;;;;;;;;;;5039007;28;20041;-50
2022/08/30 05:27:07;;;;;;;9.18;6.13;;;;;;;;;;5046510;28;20033;-52
2022/08/30 05:29:33;;;;;;;11.07;7.00;;;;;;;;;;5041423;28;20463;-51
2022/08/30 05:31:59;;;;;;;12.43;6.47;;;;;;;;;;5043017;28;20494;-50
2022/08/30 05:34:25;;;;;;;10.05;6.40;;;;;;;;;;5040050;28;20041;-52
2022/08/30 05:36:52;;;;;;;10.60;6.70;;;;;;;;;;5039482;28;20152;-52
2022/08/30 05:39:18;;;;;;;13.70;7.15;;;;;;;;;;5037940;28;20044;-53
2022/08/30 05:41:44;;;;;;;9.70;6.75;;;;;;;;;;5040435;28;20045;-50
2022/08/30 05:44:10;;;;;;;8.00;5.55;;;;;;;;;;5049090;28;20029;-51
2022/08/30 05:46:38;;;;;;;11.35;6.47;;;;;;;;;;5041926;28;20064;-53
2022/08/30 05:49:05;;;;;;;11.25;7.05;;;;;;;;;;5040650;28;20131;-53
2022/08/30 05:51:33;;;;;;;11.93;6.90;;;;;;;;;;5035705;28;20053;-53
2022/08/30 05:53:59;;;;;;;12.13;7.05;;;;;;;;;;5043793;28;20040;-53
2022/08/30 05:56:27;;;;;;;12.55;7.18;;;;;;;;;;5044291;28;20037;-51
2022/08/30 05:58:54;;;;;;;11.98;6.43;;;;;;;;;;5042870;28;20181;-52
2022/08/30 06:01:22;;;;;;;9.70;6.68;;;;;;;;;;5044042;28;20126;-51
2022/08/30 06:03:48;;;;;;;10.15;7.47;;;;;;;;;;5043601;28;20052;-52
2022/08/30 06:06:14;;;;;;;10.40;7.32;;;;;;;;;;5048447;28;20442;-52
2022/08/30 06:08:41;;;;;;;10.55;7.05;;;13.80;1.00;;;;;;5034473;28;20438;-49
2022/08/30 06:11:07;;;;;;;11.93;6.47;;;13.90;1.00;;;;;;5038615;28;20106;-53
2022/08/30 06:13:33;;;;;;;9.65;6.30;;;;;;;;;;5037885;28;20490;-53
2022/08/30 06:15:59;;;;;;;10.15;7.10;;;;;;;;;;5044185;28;20135;-52
2022/08/30 06:18:25;;;;;;;11.77;6.63;;;14.10;1.00;;;;;;5044538;28;20056;-52
2022/08/30 06:20:51;;;;;;;11.35;7.15;;;;;;;;;;5037829;28;20042;-51
2022/08/30 06:23:17;;;;;;;12.00;7.30;;;;;;;;;;5044251;28;20544;-53
2022/08/30 06:25:43;;;;;;;9.68;6.80;;;;;;;;;;5033976;28;20045;-52
2022/08/30 06:28:10;;;;;;;9.38;6.18;;;;;;;;;;5042425;28;20157;-53
2022/08/30 06:30:36;;;;;;;10.43;6.53;;;;;;;;;;5043434;28;20571;-52
2022/08/30 06:33:02;;;;;;;11.63;6.63;;;;;;;;;;5042879;28;20040;-52
2022/08/30 06:35:28;;;;;;;9.23;6.13;;;;;;;;;;5033614;28;20068;-51
2022/08/30 06:37:54;;;;;;;8.88;5.60;;;;;;;;;;5041337;28;20507;-52
2022/08/30 06:40:21;;;;;;;10.48;5.93;;;13.70;1.00;;;;;;5039756;28;20041;-53
2022/08/30 06:42:47;;;;;;;10.00;6.07;;;;;;;;;;5045955;28;20052;-52
2022/08/30 06:45:15;;;;;;;9.95;5.45;;;;;;;;;;5036573;28;20037;-50
2022/08/30 06:47:41;;;;;;;9.60;5.32;;;;;;;;;;5040342;28;20123;-51
2022/08/30 06:50:07;;;;;;;9.32;5.80;;;;;;;;;;5042764;28;20175;-50
2022/08/30 06:52:33;;;;;;;7.38;4.63;;;;;;;;;;5044173;28;20041;-50
2022/08/30 06:54:59;;;;;;;8.40;4.97;;;14.80;1.00;;;;;;5036521;28;20048;-50
2022/08/30 06:57:26;;;;;;;8.27;5.35;;;;;;;;;;5034951;28;20116;-50
2022/08/30 06:59:57;;;;;;;8.80;4.47;;;;;;;;;;5041811;28;20457;-51
2022/08/30 07:02:24;;;;;;;7.90;3.92;;;;;;;;;;5041127;28;20033;-53
2022/08/30 07:04:50;;;;;;;12.07;4.30;;;;;;;;;;5035489;28;20029;-53
2022/08/30 07:07:16;;;;;;;9.40;4.22;;;;;;;;;;5046989;28;20036;-53
2022/08/30 07:09:43;;;;;;;8.25;3.88;;;;;;;;;;5033012;28;20152;-53
2022/08/30 07:12:12;;;;;;;8.02;4.30;;;;;;;;;;5048261;28;20132;-53
2022/08/30 07:14:39;;;;;;;6.50;3.22;;;;;;;;;;5044954;28;20083;-53
2022/08/30 07:18:49;;;;;;;6.82;3.45;;;;;;;;;;5033819;28;20414;-53
2022/08/30 07:19:52;;;;;;;6.00;3.13;;;;;;;;;;5040678;28;20099;-52
2022/08/30 07:22:18;;;;;;;6.50;3.05;;;15.40;1.00;;;;;;5045071;28;20033;-51
2022/08/30 07:24:43;;;;;;;5.85;2.67;;;15.50;1.00;;;;;;5048450;28;20395;-51
2022/08/30 07:27:09;;;;;;;6.80;2.72;;;15.60;1.00;;;;;;5044711;28;20094;-52
2022/08/30 07:29:35;;;;;;;5.35;2.40;;;;;;;;;;5047026;28;20170;-53
2022/08/30 07:32:01;;;;;;;7.15;2.50;;;15.80;1.00;;;;;;5047931;28;20044;-51
2022/08/30 07:34:27;;;;;;;6.10;2.25;;;;;;;;;;5045698;28;20072;-54
2022/08/30 07:36:53;;;;;;;6.20;2.30;;;;;;;;;;5043944;28;20073;-51
2022/08/30 07:39:20;;;;;;;7.80;2.08;;;15.50;1.00;;;;;;5039913;28;20502;-52
2022/08/30 07:41:45;;;;;;;6.53;2.05;;;16.10;1.00;;;;;;5049267;28;20087;-51
2022/08/30 07:44:12;;;;;;;5.05;1.98;;;16.20;1.00;;;;;;5045904;28;20065;-51
2022/08/30 07:46:39;;;;;;;4.95;1.83;;;;;;;;;;5043088;28;20044;-51
2022/08/30 07:49:05;;;;;;;5.68;1.95;;;;;;;;;;5040875;28;20056;-50
2022/08/30 07:51:32;;;;;;;4.63;1.70;;;;;;;;;;5047835;28;20040;-54
2022/08/30 07:53:58;;;;;;;6.07;2.55;;;16.60;1.00;;;;;;5045963;28;20033;-51
2022/08/30 07:56:24;;;;;;;7.50;1.75;;;;;;;;;;5045403;28;20052;-53
2022/08/30 07:58:50;;;;;;;5.35;1.90;;;16.60;1.00;;;;;;5045755;28;20119;-52
2022/08/30 08:01:17;;;;;;;7.25;1.98;;;17.00;1.00;;;;;;5024567;28;20041;-51
2022/08/30 08:03:43;;;;;;;4.05;1.60;;;16.90;1.00;;;;;;5045790;28;20116;-52
2022/08/30 08:06:10;;;;;;;5.13;2.00;;;;;;;;;;5047469;28;20071;-53
2022/08/30 08:08:36;;;;;;;5.72;1.83;;;;;;;;;;5044797;28;20124;-52
2022/08/30 08:11:06;;;;;;;5.30;1.80;;;17.00;1.00;;;;;;5044774;28;20037;-52
2022/08/30 08:13:31;;;;;;;4.07;1.65;;;17.10;1.00;;;;;;5043804;28;20378;-52
2022/08/30 08:15:57;;;;;;;6.57;1.98;;;17.10;1.00;;;;;;5044398;28;20047;-52
2022/08/30 08:18:23;;;;;;;6.57;2.10;;;;;;;;;;5048898;28;20033;-52
2022/08/30 08:20:49;;;;;;;4.30;1.70;;;;;;;;;;5042697;28;20033;-53
2022/08/30 08:23:15;;;;;;;4.78;1.77;;;;;;;;;;5043383;28;20071;-53
2022/08/30 08:25:42;;;;;;;5.25;2.05;;;;;;;;;;5039700;28;20116;-51
2022/08/30 08:28:08;;;;;;;4.38;1.77;;;17.30;1.00;;;;;;5044806;28;20041;-52
2022/08/30 08:30:35;;;;;;;5.65;1.63;;;17.60;1.00;;;;;;5047353;28;20453;-52
2022/08/30 08:33:02;;;;;;;5.07;1.73;;;17.20;1.00;;;;;;5046286;28;20078;-52
2022/08/30 08:35:28;;;;;;;4.18;1.48;;;17.60;1.00;;;;;;5042527;28;20044;-53
2022/08/30 08:37:54;;;;;;;6.65;1.95;;;17.60;1.00;;;;;;5038563;28;20048;-53
2022/08/30 08:40:20;;;;;;;6.50;2.00;;;17.70;1.00;;;;;;5044250;28;20040;-54
2022/08/30 08:42:58;;;;;;;6.10;1.98;;;17.30;1.00;;;;;;5043394;28;20513;-52
2022/08/30 08:45:35;;;;;;;4.45;1.83;;;17.60;1.00;;;;;;5048004;28;20041;-53
2022/08/30 08:48:08;;;;;;;4.93;1.70;;;18.90;1.00;;;;;;5045509;28;20056;-53
2022/08/30 08:50:34;;;;;;;5.72;1.70;;;17.70;1.00;;;;;;5045060;28;20415;-52
2022/08/30 08:55:53;;;;;;;6.03;1.60;;;17.90;1.00;;;;;;5042465;28;20046;-54
2022/08/30 08:58:26;;;;;;;4.10;1.70;;;19.30;1.00;;;;;;5039377;28;20124;-53
2022/08/30 09:00:53;;;;;;;4.38;1.73;;;18.80;1.00;;;;;;5043227;28;20040;-53
2022/08/30 09:03:20;;;;;;;5.15;1.60;;;;;;;;;;5036869;28;20506;-50
2022/08/30 09:05:47;;;;;;;5.03;1.58;;;;;;;;;;5050051;28;20098;-52
2022/08/30 09:08:16;;;;;;;7.80;2.67;;;19.10;1.00;;;;;;5046105;28;20514;-54
2022/08/30 09:10:57;;;;;;;4.78;1.60;;;18.70;1.00;;;;;;5019751;28;20033;-54
2022/08/30 09:13:24;;;;;;;4.53;1.70;;;19.50;1.00;;;;;;5029779;28;20037;-54
2022/08/30 09:15:51;;;;;;;6.13;1.50;;;;;;;;;;5045463;28;20037;-54
2022/08/30 09:18:17;;;;;;;5.32;1.67;;;19.80;99.90;;;;;;5041354;28;20155;-53
2022/08/30 09:20:47;;;;;;;4.80;1.63;;;19.20;99.90;;;;;;5040307;28;20155;-51
2022/08/30 09:23:13;;;;;;;6.20;2.20;;;19.90;99.90;;;;;;5038118;28;20036;-53
2022/08/30 09:25:50;;;;;;;5.60;1.75;;;;;;;;;;5046312;28;20505;-54
2022/08/30 09:28:20;;;;;;;4.90;1.50;;;;;;;;;;5046548;28;20041;-55
2022/08/30 09:31:06;;;;;;;4.72;1.52;;;;;;;;;;5043295;28;20387;-54
2022/08/30 09:33:33;;;;;;;4.35;1.52;;;20.80;99.90;;;;;;5040879;28;21371;-54
2022/08/30 09:36:44;;;;;;;6.18;1.88;;;21.00;99.90;;;;;;5042068;28;20044;-53
2022/08/30 09:39:29;;;;;;;6.00;1.52;;;;;;;;;;5031555;28;20566;-55
2022/08/30 09:42:17;;;;;;;6.07;1.40;;;20.90;99.90;;;;;;5040447;28;20071;-54
2022/08/30 09:44:43;;;;;;;6.93;1.40;;;21.10;99.90;;;;;;5038963;28;20033;-52
2022/08/30 09:47:18;;;;;;;4.30;1.20;;;;;;;;;;5042860;28;20043;-54
2022/08/30 09:49:43;;;;;;;7.15;1.48;;;20.80;99.90;;;;;;5047031;28;20064;-53
2022/08/30 09:52:30;;;;;;;3.35;1.00;;;21.00;99.90;;;;;;5039069;28;20037;-53
2022/08/30 09:55:06;;;;;;;4.95;1.63;;;;;;;;;;5047595;28;20068;-53
2022/08/30 09:57:47;;;;;;;6.07;1.55;;;21.00;99.90;;;;;;5043372;28;20079;-54
2022/08/30 10:00:12;;;;;;;4.10;1.40;;;20.80;99.90;;;;;;5047718;28;20521;-52
2022/08/30 10:02:47;;;;;;;4.25;1.23;;;21.30;99.90;;;;;;5042885;28;20041;-54
2022/08/30 10:05:26;;;;;;;5.35;1.20;;;21.90;99.90;;;;;;5042232;28;20039;-54
2022/08/30 10:08:04;;;;;;;6.55;1.88;;;21.90;99.90;;;;;;5040538;28;20041;-54
2022/08/30 10:10:35;;;;;;;3.97;1.40;;;21.20;99.90;;;;;;5037206;28;20073;-54
2022/08/30 10:13:29;;;;;;;7.20;1.60;;;21.50;99.90;;;;;;5036768;28;20032;-54
2022/08/30 10:16:07;;;;;;;4.40;1.70;;;21.70;99.90;;;;;;5047059;28;20116;-53
2022/08/30 10:18:42;;;;;;;4.55;1.40;;;21.20;99.90;;;;;;5042091;28;20099;-53
2022/08/30 10:21:24;;;;;;;4.93;1.35;;;21.30;99.90;;;;;;5043991;28;20049;-54
2022/08/30 10:23:57;;;;;;;4.47;1.60;;;21.30;99.90;;;;;;5036799;28;20111;-54
2022/08/30 10:26:46;;;;;;;4.07;1.50;;;21.50;99.90;;;;;;5042779;28;20048;-54
2022/08/30 10:29:37;;;;;;;5.15;2.28;;;21.60;99.90;;;;;;5041903;28;20045;-53
2022/08/30 10:32:55;;;;;;;4.78;1.38;;;21.10;99.90;;;;;;5040807;28;20037;-53
2022/08/30 10:35:34;;;;;;;5.18;1.40;;;21.70;99.90;;;;;;5030575;28;20041;-52
2022/08/30 10:38:09;;;;;;;3.70;1.30;;;21.30;99.90;;;;;;5039804;28;20045;-53
2022/08/30 10:43:37;;;;;;;4.10;1.40;;;22.50;99.90;;;;;;5040115;28;20045;-51
2022/08/30 10:46:09;;;;;;;5.38;1.70;;;22.20;99.90;;;;;;5033782;28;20037;-54
2022/08/30 10:48:43;;;;;;;3.85;1.27;;;21.50;99.90;;;;;;5046467;28;20041;-54
2022/08/30 10:51:18;;;;;;;4.93;1.40;;;21.10;99.90;;;;;;5046172;28;20564;-54
2022/08/30 10:53:49;;;;;;;6.68;1.40;;;21.30;99.90;;;;;;5046675;28;20099;-53
2022/08/30 10:56:19;;;;;;;3.88;1.40;;;22.20;99.90;;;;;;5042352;28;20136;-51
2022/08/30 10:58:45;;;;;;;4.68;1.25;;;21.90;99.90;;;;;;5048443;28;20067;-52
2022/08/30 11:01:20;;;;;;;4.60;1.30;;;21.50;99.90;;;;;;5048731;28;20028;-52
2022/08/30 11:03:46;;;;;;;5.22;1.27;;;21.60;99.90;;;;;;5044355;28;20060;-54
2022/08/30 11:06:15;;;;;;;4.63;1.20;;;22.00;99.90;;;;;;5042723;28;20044;-51
2022/08/30 11:08:50;;;;;;;5.05;1.40;;;20.90;99.90;;;;;;5038794;28;20083;-50
2022/08/30 11:11:31;;;;;;;3.80;1.27;;;21.60;99.90;;;;;;5046174;28;20503;-52
2022/08/30 11:14:01;;;;;;;5.63;1.23;;;21.40;99.90;;;;;;5040421;28;20045;-52
2022/08/30 11:16:37;;;;;;;4.28;1.27;;;20.80;99.90;;;;;;5046046;28;20037;-52
2022/08/30 11:19:11;;;;;;;4.57;1.30;;;21.70;99.90;;;;;;5042479;28;20040;-51
2022/08/30 11:21:39;;;;;;;3.72;1.10;;;21.00;99.90;;;;;;5043743;28;20036;-53
2022/08/30 11:24:10;;;;;;;4.38;1.30;;;;;;;;;;5047989;28;20034;-54
2022/08/30 11:26:44;;;;;;;3.70;1.27;;;21.30;99.90;;;;;;5046336;28;20065;-52
2022/08/30 11:29:34;;;;;;;4.18;1.20;;;21.40;99.90;;;;;;5044752;28;20475;-53
2022/08/30 11:32:12;;;;;;;3.72;1.20;;;21.50;99.90;;;;;;5045007;28;20048;-54
2022/08/30 11:34:57;;;;;;;4.72;1.30;;;;;;;;;;5047671;28;20045;-51
2022/08/30 11:37:35;;;;;;;4.32;1.25;;;21.10;99.90;;;;;;5035053;28;20498;-52
2022/08/30 11:40:29;;;;;;;6.25;1.38;;;21.30;99.90;;;;;;5049683;28;20383;-54
2022/08/30 11:42:55;;;;;;;5.35;1.30;;;21.50;99.90;;;;;;5041247;28;20037;-54
2022/08/30 11:45:24;;;;;;;5.18;1.40;;;22.40;99.90;;;;;;5051977;28;20043;-56
2022/08/30 11:47:54;;;;;;;4.03;1.60;;;22.30;99.90;;;;;;5044946;28;20120;-54
2022/08/30 11:50:29;;;;;;;4.65;1.30;;;22.00;99.90;;;;;;5043872;28;20040;-55
2022/08/30 11:53:08;;;;;;;4.70;1.30;;;22.30;99.90;;;;;;5043044;28;20068;-55
2022/08/30 11:55:46;;;;;;;5.75;1.60;;;23.00;99.90;;;;;;5044512;28;20422;-54
2022/08/30 11:58:40;;;;;;;5.28;1.42;;;22.00;99.90;;;;;;5042431;28;20482;-53
2022/08/30 12:01:26;;;;;;;4.18;1.40;;;22.40;99.90;;;;;;5037896;28;20186;-52
2022/08/30 12:04:16;;;;;;;4.50;1.40;;;23.10;99.90;;;;;;5045450;28;20115;-54
2022/08/30 12:06:48;;;;;;;5.95;1.50;;;23.30;99.90;;;;;;5046694;28;20044;-54
2022/08/30 12:09:22;;;;;;;5.57;1.60;;;23.40;99.90;;;;;;5039867;28;20040;-54
2022/08/30 12:12:06;;;;;;;;;;;24.80;99.90;;;;;;5050373;28;20045;-54
2022/08/30 12:14:59;;;;;;;3.60;1.30;;;26.90;99.90;;;;;;5037996;28;20007;-53
2022/08/30 12:20:27;;;;;;;4.10;1.30;;;31.20;99.90;;;;;;5039239;28;20065;-54
2022/08/30 12:22:54;;;;;;;3.80;1.20;;;32.80;99.90;;;;;;5050206;28;20087;-55
2022/08/30 12:25:30;;;;;;;4.93;1.40;;;34.80;99.90;;;;;;5042606;28;20343;-55
2022/08/30 12:28:14;;;;;;;3.50;1.10;;;35.30;99.90;;;;;;5044693;28;20041;-56
2022/08/30 12:30:41;;;;;;;4.18;1.48;;;37.70;99.90;;;;;;5041599;28;20041;-55
2022/08/30 12:33:12;;;;;;;3.88;1.35;;;38.90;99.90;;;;;;5044912;28;20044;-55
2022/08/30 12:35:41;;;;;;;4.80;1.10;;;39.40;99.90;;;;;;5045929;28;20490;-55
2022/08/30 12:38:17;;;;;;;5.95;1.50;;;40.60;99.90;;;;;;5046924;28;20071;-55
2022/08/30 12:40:55;;;;;;;3.80;1.30;;;39.20;99.90;;;;;;5038932;28;20039;-55
2022/08/30 12:43:29;;;;;;;3.53;1.30;;;41.80;99.90;;;;;;5040023;28;20497;-55
2022/08/30 12:45:59;;;;;;;4.70;1.20;;;41.20;99.90;;;;;;5037591;28;20041;-55
2022/08/30 12:48:27;;;;;;;4.05;1.30;;;41.80;99.90;;;;;;5042833;28;20048;-55
2022/08/30 12:50:59;;;;;;;5.07;1.60;;;42.20;99.90;;;;;;5031899;28;20502;-55
2022/08/30 12:53:36;;;;;;;4.93;1.33;;;42.20;99.90;;;;;;5050087;28;20033;-55
2022/08/30 12:56:18;;;;;;;5.97;1.40;;;43.60;99.90;;;;;;5045028;28;20164;-55
2022/08/30 12:58:52;;;;;;;4.40;1.20;;;44.00;99.90;;;;;;5043636;28;20115;-55
2022/08/30 13:01:26;;;;;;;5.35;1.40;;;43.80;99.90;;;;;;5031800;28;20083;-55
2022/08/30 13:04:12;;;;;;;4.05;1.10;;;44.30;99.90;;;;;;5036383;28;20395;-55
2022/08/30 13:06:57;;;;;;;5.28;1.20;;;43.90;99.90;;;;;;5043035;28;20080;-55
2022/08/30 13:09:28;;;;;;;5.05;1.65;;;44.80;99.90;;;;;;5038255;28;20447;-56
2022/08/30 13:11:54;;;;;;;5.85;1.20;;;44.80;99.90;;;;;;5047284;28;20106;-56
2022/08/30 13:14:41;;;;;;;3.92;1.17;;;45.10;99.90;;;;;;5045683;28;20041;-56
2022/08/30 13:17:19;;;;;;;3.53;1.17;;;45.70;99.90;;;;;;5040627;28;20199;-53
2022/08/30 13:20:05;;;;;;;3.30;1.15;;;45.00;99.90;;;;;;5041655;28;20037;-55
2022/08/30 13:22:58;;;;;;;5.22;1.38;;;45.80;99.90;;;;;;5039046;28;20051;-55
2022/08/30 13:25:33;;;;;;;2.87;1.00;;;45.70;99.90;;;;;;5035720;28;20037;-55
2022/08/30 13:28:00;;;;;;;5.05;1.20;;;46.00;99.90;;;;;;5040029;28;20041;-55
2022/08/30 13:30:27;;;;;;;4.65;1.15;;;47.10;99.90;;;;;;5046762;28;20045;-54
2022/08/30 13:32:54;;;;;;;4.25;1.30;;;46.40;99.90;;;;;;5047430;28;20049;-54
2022/08/30 13:35:20;;;;;;;4.55;1.30;;;46.70;99.90;;;;;;5041820;28;20037;-55
2022/08/30 13:37:46;;;;;;;3.17;1.15;;;46.60;99.90;;;;;;5029683;28;20050;-57
2022/08/30 13:40:16;;;;;;;4.38;1.20;;;46.20;99.90;;;;;;5039162;28;20210;-54
2022/08/30 13:43:18;;;;;;;6.20;1.38;;;45.90;99.90;;;;;;5000177;23;20216;-69
2022/08/30 13:45:44;;;;;;;4.22;1.30;;;46.50;99.90;;;;;;5028421;28;20041;-69
2022/08/30 13:48:13;;;;;;;4.38;1.30;;;45.40;99.90;;;;;;4951080;28;20546;-67
2022/08/30 13:50:42;;;;;;;3.70;1.30;;;45.10;99.90;;;;;;4986361;28;20125;-69
2022/08/30 13:53:09;;;;;;;3.20;1.10;;;45.40;99.90;;;;;;5005456;28;20564;-69